createdAt,value
2023-03-21T04:49:58.235Z,78607.25
2023-03-21T04:52:28.596Z,78601.16
2023-03-21T04:54:58.547Z,78614.84
2023-03-21T04:57:27.998Z,78616.00
2023-03-21T05:05:53.571Z,78604.75
2023-03-21T05:08:23.375Z,78613.97
2023-03-21T05:28:41.175Z,78621.06
2023-03-21T05:31:11.125Z,78591.41
2023-03-21T05:33:40.815Z,78610.97
2023-03-21T05:42:36.671Z,78601.91
2023-03-21T05:45:15.630Z,78597.13
2023-03-21T05:47:46.359Z,78579.09
2023-03-21T05:50:16.968Z,78595.81
2023-03-21T05:52:54.335Z,78582.53
2023-03-21T05:55:24.329Z,78590.78
2023-03-21T05:57:53.275Z,78597.78
2023-03-21T06:00:30.491Z,78601.69
2023-03-21T06:03:16.890Z,78583.16
2023-03-21T06:05:59.529Z,78591.22
2023-03-21T06:08:36.030Z,78593.50
2023-03-21T06:11:05.451Z,78602.84
2023-03-21T06:13:36.617Z,78603.47
2023-03-21T06:16:06.579Z,78576.09
2023-03-21T06:18:38.637Z,78593.09
2023-03-21T06:21:28.503Z,78596.41
2023-03-21T06:23:57.567Z,78610.34
2023-03-21T06:26:26.890Z,78603.84
2023-03-21T06:28:56.939Z,78597.72
2023-03-21T06:31:27.542Z,78606.09
2023-03-21T06:34:03.527Z,78597.09
2023-03-21T06:36:34.269Z,78585.59
2023-03-21T06:39:04.358Z,78602.28
2023-03-21T06:41:33.888Z,78577.03
2023-03-21T06:44:07.505Z,78603.63
2023-03-21T06:46:46.091Z,78602.50
2023-03-21T06:49:19.519Z,78587.63
2023-03-21T06:51:48.672Z,78588.59
2023-03-21T06:54:22.502Z,78578.84
2023-03-21T06:57:12.441Z,78577.28
2023-03-21T06:59:42.952Z,78574.34
2023-03-21T07:02:16.899Z,78567.66
2023-03-21T07:04:52.808Z,78590.78
2023-03-21T07:07:30.270Z,78584.03
2023-03-21T07:09:59.865Z,78573.72
2023-03-21T07:12:36.920Z,78590.38
2023-03-21T07:15:20.213Z,78582.88
2023-03-21T07:17:50.665Z,78582.47
2023-03-21T07:20:20.123Z,78573.19
2023-03-21T07:22:49.658Z,78573.53
2023-03-21T07:25:21.110Z,78575.78
2023-03-21T07:27:52.212Z,78570.63
2023-03-21T07:30:22.923Z,78582.59
2023-03-21T07:32:55.774Z,78565.09
2023-03-21T07:35:25.758Z,78567.38
2023-03-21T07:37:56.196Z,78565.47
2023-03-21T07:40:25.810Z,78560.34
2023-03-21T07:42:55.545Z,78561.56
2023-03-21T07:45:35.846Z,78570.78
2023-03-21T07:48:09.773Z,78561.34
2023-03-21T07:50:39.694Z,78557.25
2023-03-21T07:53:09.997Z,78556.25
2023-03-21T07:55:40.079Z,78543.50
2023-03-21T07:58:10.911Z,78563.00
2023-03-21T08:00:40.076Z,78545.47
2023-03-21T08:03:10.134Z,78541.91
2023-03-21T08:05:42.759Z,78557.34
2023-03-21T08:08:12.104Z,78545.31
2023-03-21T08:10:41.013Z,78552.56
2023-03-21T08:13:10.080Z,78556.88
2023-03-21T08:15:40.749Z,78540.97
2023-03-21T08:18:12.167Z,78546.31
2023-03-21T08:20:44.216Z,78551.91
2023-03-21T08:23:15.353Z,78544.94
2023-03-21T08:25:44.643Z,78542.97
2023-03-21T08:28:13.794Z,78542.22
2023-03-21T08:30:44.564Z,78539.22
2023-03-21T08:33:15.200Z,78538.31
2023-03-21T08:35:44.831Z,78519.63
2023-03-21T08:38:15.213Z,78539.88
2023-03-21T08:40:44.345Z,78497.16
2023-03-21T08:43:14.851Z,78523.59
2023-03-21T08:45:43.968Z,78511.97
2023-03-21T08:48:13.008Z,78519.88
2023-03-21T08:50:43.275Z,78528.59
2023-03-21T08:53:12.642Z,78531.25
2023-03-21T08:55:41.915Z,78528.13
2023-03-21T08:58:11.308Z,78509.16
2023-03-21T09:00:40.259Z,78514.72
2023-03-21T09:03:11.614Z,78501.13
2023-03-21T09:05:40.839Z,78499.06
2023-03-21T09:08:10.973Z,78487.59
2023-03-21T09:10:41.210Z,78490.00
2023-03-21T09:13:10.448Z,78495.84
2023-03-21T09:15:41.289Z,78495.28
2023-03-21T09:18:18.323Z,78478.25
2023-03-21T09:20:48.978Z,78494.97
2023-03-21T09:23:19.976Z,78474.13
2023-03-21T09:25:49.100Z,78493.22
2023-03-21T09:28:18.192Z,78485.91
2023-03-21T09:30:47.479Z,78479.19
2023-03-21T09:33:22.354Z,78473.00
2023-03-21T09:35:52.351Z,78487.69
2023-03-21T09:38:21.638Z,78476.25
2023-03-21T09:41:06.633Z,78476.13
2023-03-21T09:43:52.225Z,78476.00
2023-03-21T09:46:38.107Z,78468.53
2023-03-21T09:49:17.227Z,78471.06
2023-03-21T09:51:54.748Z,78466.09
2023-03-21T09:54:30.701Z,78466.75
2023-03-21T09:57:05.512Z,78471.41
2023-03-21T09:59:41.088Z,78470.31
2023-03-21T10:02:39.785Z,78467.88
2023-03-21T10:05:19.559Z,78459.63
2023-03-21T10:08:14.315Z,78461.03
2023-03-21T10:10:57.147Z,78443.06
2023-03-21T10:13:42.312Z,78461.78
2023-03-21T10:16:27.846Z,78451.06
2023-03-21T10:18:57.757Z,78452.66
2023-03-21T10:21:58.628Z,78454.97
2023-03-21T10:24:27.214Z,78445.34
2023-03-21T10:26:58.253Z,78444.03
2023-03-21T10:29:38.868Z,78416.91
2023-03-21T10:32:13.467Z,78452.41
2023-03-21T10:34:48.974Z,78440.19
2023-03-21T10:37:20.186Z,78452.16
2023-03-21T10:39:55.501Z,78445.41
2023-03-21T10:42:31.803Z,78445.22
2023-03-21T10:45:02.012Z,78435.72
2023-03-21T10:47:35.644Z,78450.03
2023-03-21T10:50:10.400Z,78443.19
2023-03-21T10:52:47.171Z,78445.75
2023-03-21T10:55:33.203Z,78436.81
2023-03-21T10:58:26.204Z,78422.47
2023-03-21T11:01:05.253Z,78442.63
2023-03-21T11:03:39.104Z,78439.47
2023-03-21T11:06:39.689Z,78442.66
2023-03-21T11:09:25.752Z,78444.47
2023-03-21T11:12:11.553Z,78432.13
2023-03-21T11:14:44.161Z,78438.00
2023-03-21T11:17:19.880Z,78444.22
2023-03-21T11:19:54.559Z,78431.00
2023-03-21T11:22:26.303Z,78426.75
2023-03-21T11:25:01.767Z,78446.16
2023-03-21T11:27:33.291Z,78443.34
2023-03-21T11:30:06.127Z,78441.72
2023-03-21T11:32:39.379Z,78430.59
2023-03-21T11:35:15.429Z,78422.22
2023-03-21T11:37:48.042Z,78439.41
2023-03-21T11:40:24.554Z,78443.91
2023-03-21T11:43:00.440Z,78441.09
2023-03-21T11:45:32.138Z,78451.59
2023-03-21T11:48:06.926Z,78438.53
2023-03-21T11:50:45.054Z,78441.22
2023-03-21T11:53:39.412Z,78450.22
2023-03-21T11:56:24.988Z,78462.81
2023-03-21T11:59:23.367Z,78448.72
2023-03-21T12:02:05.125Z,78454.16
2023-03-21T12:04:48.442Z,78448.97
2023-03-21T12:07:25.359Z,78448.00
2023-03-21T12:10:22.087Z,78456.38
2023-03-21T12:12:57.922Z,78462.97
2023-03-21T12:15:38.778Z,78438.47
2023-03-21T12:18:38.838Z,78464.44
2023-03-21T12:21:14.745Z,78440.09
2023-03-21T12:23:43.689Z,78470.53
2023-03-21T12:26:34.358Z,78476.13
2023-03-21T12:29:35.349Z,78469.34
2023-03-21T12:32:22.703Z,78464.47
2023-03-21T12:35:25.140Z,78457.94
2023-03-21T12:38:23.399Z,78467.91
2023-03-21T12:41:07.808Z,78474.63
2023-03-21T12:43:50.805Z,78469.44
2023-03-21T12:46:45.819Z,78478.53
2023-03-21T12:49:31.304Z,78458.44
2023-03-21T12:52:34.590Z,78479.78
2023-03-21T12:55:29.534Z,78480.75
2023-03-21T12:58:11.060Z,78480.09
2023-03-21T13:00:50.442Z,78469.28
2023-03-21T13:03:40.837Z,78474.63
2023-03-21T13:06:14.618Z,78472.19
2023-03-21T13:09:21.293Z,78466.13
2023-03-21T13:11:57.376Z,78469.59
2023-03-21T13:14:34.913Z,78481.97
2023-03-21T13:17:12.540Z,78479.25
2023-03-21T13:19:52.947Z,78467.47
2023-03-21T13:22:33.116Z,78467.03
2023-03-21T13:25:09.367Z,78480.22
2023-03-21T13:27:42.758Z,78482.22
2023-03-21T13:30:29.586Z,78480.50
2023-03-21T13:33:22.847Z,78489.91
2023-03-21T13:36:08.969Z,78484.91
2023-03-21T13:38:41.943Z,78494.19
2023-03-21T13:41:16.825Z,78493.66
2023-03-21T13:43:47.895Z,78506.19
2023-03-21T13:46:50.615Z,78504.28
2023-03-21T13:49:36.524Z,78517.38
2023-03-21T13:52:14.217Z,78512.06
2023-03-21T13:54:58.296Z,78503.53
2023-03-21T13:57:31.397Z,78515.34
2023-03-21T14:00:31.469Z,78516.16
2023-03-21T14:03:14.764Z,78500.38
2023-03-21T14:05:50.367Z,78505.25
2023-03-21T14:08:31.444Z,78518.91
2023-03-21T14:11:10.333Z,78530.13
2023-03-21T14:13:50.801Z,78513.94
2023-03-21T14:16:26.316Z,78513.31
2023-03-21T14:19:03.019Z,78531.78
2023-03-21T14:21:35.351Z,78530.56
2023-03-21T14:24:13.468Z,78542.47
2023-03-21T14:26:47.463Z,78552.13
2023-03-21T14:29:26.900Z,78543.06
2023-03-21T14:31:58.801Z,78563.00
2023-03-21T14:34:35.613Z,78561.09
2023-03-21T14:37:11.875Z,78516.06
2023-03-21T14:39:41.159Z,78537.84
2023-03-21T14:42:16.905Z,78552.41
2023-03-21T14:44:55.701Z,78560.31
2023-03-21T14:47:28.990Z,78565.47
2023-03-21T14:49:59.384Z,78571.47
2023-03-21T14:52:33.018Z,78566.31
2023-03-21T14:55:07.247Z,78569.88
2023-03-21T14:57:36.502Z,78545.72
2023-03-21T15:00:13.821Z,78520.75
2023-03-21T15:02:47.779Z,78543.31
2023-03-21T15:05:27.180Z,78566.53
2023-03-21T15:08:02.891Z,78554.22
2023-03-21T15:10:33.365Z,78554.31
2023-03-21T15:13:14.817Z,78568.97
2023-03-21T15:15:44.932Z,78567.75
2023-03-21T15:18:20.385Z,78571.22
2023-03-21T15:20:51.477Z,78575.78
2023-03-21T15:23:37.200Z,78575.88
2023-03-21T15:26:07.656Z,78595.47
2023-03-21T15:28:37.215Z,78581.19
2023-03-21T15:31:15.559Z,78587.13
2023-03-21T15:33:48.795Z,78597.75
2023-03-21T15:36:28.604Z,78553.63
2023-03-21T15:38:58.452Z,78575.41
2023-03-21T15:41:32.879Z,78579.44
2023-03-21T15:44:23.348Z,78597.16
2023-03-21T15:46:54.088Z,78601.84
2023-03-21T15:49:24.606Z,78613.84
2023-03-21T15:51:58.981Z,78591.63
2023-03-21T15:54:35.323Z,78611.41
2023-03-21T15:57:16.044Z,78619.88
2023-03-21T15:59:48.869Z,78568.69
2023-03-21T16:02:24.416Z,78616.81
2023-03-21T16:05:21.420Z,78608.97
2023-03-21T16:07:51.336Z,78592.47
2023-03-21T16:10:32.692Z,78627.91
2023-03-21T16:13:01.990Z,78617.31
2023-03-21T16:15:31.239Z,78625.22
2023-03-21T16:18:05.460Z,78634.97
2023-03-21T16:20:42.396Z,78637.53
2023-03-21T16:23:16.881Z,78637.47
2023-03-21T16:26:06.738Z,78632.91
2023-03-21T16:28:35.836Z,78636.28
2023-03-21T16:31:05.155Z,78660.66
2023-03-21T16:33:34.965Z,78632.41
2023-03-21T16:36:19.583Z,78643.72
2023-03-21T16:38:58.894Z,78639.16
2023-03-21T16:41:29.815Z,78646.50
2023-03-21T16:43:59.244Z,78642.59
2023-03-21T16:46:28.499Z,78650.53
2023-03-21T16:49:00.642Z,78626.19
2023-03-21T16:51:37.605Z,78653.78
2023-03-21T16:54:06.739Z,78652.44
2023-03-21T16:56:40.692Z,78648.50
2023-03-21T16:59:14.847Z,78646.63
2023-03-21T17:01:50.201Z,78647.34
2023-03-21T17:04:20.434Z,78642.84
2023-03-21T17:06:52.107Z,78634.88
2023-03-21T17:09:24.781Z,78645.31
2023-03-21T17:11:54.345Z,78648.63
2023-03-21T17:14:24.088Z,78644.81
2023-03-21T17:16:53.342Z,78634.34
2023-03-21T17:19:29.290Z,78616.63
2023-03-21T17:21:58.613Z,78626.56
2023-03-21T17:24:27.527Z,78624.69
2023-03-21T17:26:57.241Z,78621.97
2023-03-21T17:29:26.871Z,78622.03
2023-03-21T17:31:56.030Z,78651.06
2023-03-21T17:34:25.442Z,78647.09
2023-03-21T17:36:54.559Z,78655.69
2023-03-21T17:39:29.463Z,78656.38
2023-03-21T17:41:59.290Z,78630.03
2023-03-21T17:44:28.217Z,78653.72
2023-03-21T17:46:56.986Z,78630.00
2023-03-21T17:49:26.139Z,78639.22
2023-03-21T17:51:55.482Z,78649.09
2023-03-21T17:54:24.539Z,78646.50
2023-03-21T17:56:54.002Z,78637.94
2023-03-21T17:59:23.746Z,78629.34
2023-03-21T18:01:52.929Z,78641.81
2023-03-21T18:04:21.841Z,78637.09
2023-03-21T18:06:50.958Z,78640.34
2023-03-21T18:09:21.862Z,78631.13
2023-03-21T18:11:50.909Z,78632.47
2023-03-21T18:14:27.952Z,78650.22
2023-03-21T18:16:58.428Z,78640.41
2023-03-21T18:19:28.209Z,78629.31
2023-03-21T18:21:58.150Z,78614.16
2023-03-21T18:24:26.919Z,78639.88
2023-03-21T18:26:56.430Z,78626.66
2023-03-21T18:32:14.371Z,78639.84
2023-03-21T18:34:43.785Z,78642.44
2023-03-21T18:37:13.529Z,78647.00
2023-03-21T18:39:43.568Z,78615.38
2023-03-21T18:42:19.100Z,78647.06
2023-03-21T18:44:49.856Z,78625.97
2023-03-21T18:47:18.591Z,78624.63
2023-03-21T18:50:12.801Z,78623.97
2023-03-21T18:52:37.949Z,78629.91
2023-03-21T18:55:08.904Z,78627.84
2023-03-21T18:57:39.075Z,78621.91
2023-03-21T19:00:17.831Z,78645.59
2023-03-21T19:03:09.927Z,78639.69
2023-03-21T19:05:45.024Z,78639.13
2023-03-21T19:08:13.787Z,78635.28
2023-03-21T19:10:42.977Z,78628.72
2023-03-21T19:13:12.572Z,78646.56
2023-03-21T19:15:41.662Z,78638.69
2023-03-21T19:18:37.668Z,78645.22
2023-03-21T19:21:04.078Z,78655.00
2023-03-21T19:23:59.322Z,78637.84
2023-03-21T19:26:24.241Z,78642.38
2023-03-21T19:28:53.962Z,78632.38
2023-03-21T19:31:25.369Z,78623.09
2023-03-21T19:33:54.955Z,78646.09
2023-03-21T19:36:23.982Z,78629.44
2023-03-21T19:38:53.552Z,78637.97
2023-03-21T19:41:22.669Z,78629.31
2023-03-21T19:43:55.174Z,78614.22
2023-03-21T19:47:24.003Z,78637.22
2023-03-21T19:52:43.858Z,78623.41
2023-03-21T19:55:15.637Z,78641.16
2023-03-21T19:57:44.534Z,78616.16
2023-03-21T20:00:13.741Z,78621.44
2023-03-21T20:02:46.190Z,78622.81
2023-03-21T20:05:17.422Z,78643.22
2023-03-21T20:07:46.479Z,78631.34
2023-03-21T20:10:15.685Z,78630.00
2023-03-21T20:12:44.884Z,78638.41
2023-03-21T20:15:19.212Z,78630.56
2023-03-21T20:17:51.355Z,78643.78
2023-03-21T20:20:21.819Z,78620.75
2023-03-21T20:23:06.142Z,78622.09
2023-03-21T20:25:36.868Z,78612.88
2023-03-21T20:28:15.690Z,78608.97
2023-03-21T20:30:53.893Z,78628.13
2023-03-21T20:33:22.971Z,78628.78
2023-03-21T20:38:46.996Z,78624.09
2023-03-21T20:41:16.403Z,78622.75
2023-03-21T20:46:37.145Z,78617.38
2023-03-21T20:49:10.319Z,78625.25
2023-03-21T20:54:28.587Z,78620.75
2023-03-21T20:56:58.092Z,78601.03
2023-03-21T20:59:28.200Z,78593.78
2023-03-21T21:01:59.433Z,78593.06
2023-03-21T21:04:49.705Z,78598.34
2023-03-21T21:07:23.094Z,78606.88
2023-03-21T21:09:52.390Z,78600.97
2023-03-21T21:12:21.338Z,78578.63
2023-03-21T21:14:50.288Z,78599.59
2023-03-21T21:20:18.837Z,78577.97
2023-03-21T21:22:59.615Z,78593.19
2023-03-21T21:25:32.958Z,78575.56
2023-03-21T21:28:09.878Z,78566.44
2023-03-21T21:30:42.123Z,78572.50
2023-03-21T21:33:11.625Z,78582.50
2023-03-21T21:35:40.512Z,78590.47
2023-03-21T21:38:09.417Z,78574.06
2023-03-21T21:40:38.309Z,78580.03
2023-03-21T21:43:07.641Z,78592.59
2023-03-21T21:45:37.650Z,78573.56
2023-03-21T21:48:07.731Z,78560.38
2023-03-21T21:50:38.069Z,78572.88
2023-03-21T21:53:07.265Z,78581.47
2023-03-21T21:55:36.761Z,78575.53
2023-03-21T21:58:06.782Z,78579.53
2023-03-21T22:00:36.877Z,78579.53
2023-03-21T22:03:07.441Z,78566.28
2023-03-21T22:08:24.002Z,78541.09
2023-03-21T22:10:52.976Z,78550.84
2023-03-21T22:13:21.681Z,78563.88
2023-03-21T22:15:50.788Z,78549.91
2023-03-21T22:18:19.448Z,78542.63
2023-03-21T22:20:48.398Z,78538.00
2023-03-21T22:23:19.837Z,78547.19
2023-03-21T22:25:52.727Z,78548.47
2023-03-21T22:28:23.028Z,78548.53
2023-03-21T22:30:52.159Z,78547.19
2023-03-21T22:33:23.204Z,78555.06
2023-03-21T22:35:52.905Z,78567.63
2023-03-21T22:38:25.299Z,78559.78
2023-03-21T22:41:02.901Z,78558.50
2023-03-21T22:43:36.612Z,78545.44
2023-03-21T22:46:08.696Z,78539.50
2023-03-21T22:48:38.197Z,78554.00
2023-03-21T22:51:07.607Z,78553.41
2023-03-21T22:53:36.753Z,78544.88
2023-03-21T22:56:05.828Z,78555.44
2023-03-21T22:58:34.842Z,78557.44
2023-03-21T23:01:06.486Z,78563.34
2023-03-21T23:03:35.834Z,78512.72
2023-03-21T23:06:15.367Z,78545.53
2023-03-21T23:08:45.115Z,78545.53
2023-03-21T23:11:13.984Z,78564.59
2023-03-21T23:13:43.052Z,78531.09
2023-03-21T23:16:12.122Z,78553.47
2023-03-21T23:18:43.950Z,78553.47
2023-03-21T23:21:14.152Z,78558.75
2023-03-21T23:23:51.285Z,78567.31
2023-03-21T23:26:24.826Z,78567.97
2023-03-21T23:28:55.568Z,78560.09
2023-03-21T23:31:27.977Z,78529.19
2023-03-21T23:34:00.952Z,78563.38
2023-03-21T23:36:30.109Z,78556.78
2023-03-21T23:38:59.501Z,78566.59
2023-03-21T23:41:28.476Z,78569.13
2023-03-21T23:43:57.351Z,78577.06
2023-03-21T23:46:26.250Z,78549.47
2023-03-21T23:48:55.086Z,78572.50
2023-03-21T23:51:24.209Z,78569.19
2023-03-21T23:53:55.042Z,78545.50
2023-03-21T23:56:27.032Z,78582.34
2023-03-21T23:58:58.353Z,78571.81
